Time;durP1;ratioP1;P1;durP2;ratioP2;P2;SDS_P1;SDS_P2;PMS_P1;PMS_P2;Temp;Humidity;BMP_temperature;BMP_pressure;BME280_temperature;BME280_humidity;BME280_pressure;Samples;Min_cycle;Max_cycle;Signal;HPM_P1;HPM_P2
2023/06/03 00:00:43;;;;;;;6.72;3.72;;;;;;;16.82;97.09;94525.94;5043521;28;20186;-84
2023/06/03 00:03:11;;;;;;;4.13;3.33;;;;;;;16.93;97.08;94535.59;5043993;28;20210;-85
2023/06/03 00:05:42;;;;;;;6.53;3.53;;;;;;;16.74;97.49;94500.66;5044291;28;20175;-85
2023/06/03 00:08:07;;;;;;;6.10;4.05;;;;;;;16.86;97.94;94509.25;5045202;28;20217;-85
2023/06/03 00:10:33;;;;;;;7.90;4.07;;;;;;;17.12;98.00;94541.28;5054358;28;20159;-84
2023/06/03 00:12:58;;;;;;;7.43;4.13;;;;;;;16.95;96.94;94520.97;5052960;28;20937;-85
2023/06/03 00:15:23;;;;;;;4.85;3.35;;;;;;;17.07;96.30;94546.56;5054072;28;20171;-85
2023/06/03 00:17:49;;;;;;;6.50;3.47;;;;;;;17.07;96.68;94544.69;5054227;28;20534;-85
2023/06/03 00:20:14;;;;;;;4.50;3.33;;;;;;;17.06;96.26;94544.94;5054319;28;20155;-85
2023/06/03 00:22:40;;;;;;;8.70;3.75;;;;;;;17.06;97.02;94543.09;5052667;28;20171;-85
2023/06/03 00:25:07;;;;;;;6.63;3.58;;;;;;;16.98;96.78;94525.78;5054046;28;20170;-85
2023/06/03 00:27:36;;;;;;;4.80;3.47;;;;;;;17.04;97.58;94536.47;5054140;28;20514;-85
2023/06/03 00:30:02;;;;;;;4.68;3.70;;;;;;;16.89;97.88;94506.06;5050643;28;20175;-85
2023/06/03 00:32:28;;;;;;;4.90;3.40;;;;;;;17.12;97.76;94535.97;5047450;28;20181;-85
2023/06/03 00:34:53;;;;;;;6.32;3.67;;;;;;;17.01;97.41;94519.16;5045332;28;20561;-85
2023/06/03 00:37:19;;;;;;;5.50;3.53;;;;;;;16.86;96.18;94497.81;5042642;28;20652;-85
2023/06/03 00:39:44;;;;;;;3.53;3.05;;;;;;;16.96;95.26;94533.19;5053603;28;20164;-85
2023/06/03 00:42:09;;;;;;;7.20;3.25;;;;;;;16.86;95.98;94529.72;5053898;28;20699;-85
2023/06/03 00:44:35;;;;;;;7.25;3.40;;;;;;;16.79;96.73;94515.81;5052229;28;20175;-84
2023/06/03 00:47:01;;;;;;;5.00;3.38;;;;;;;16.80;96.82;94522.75;5053709;28;20527;-85
2023/06/03 00:49:27;;;;;;;4.60;3.70;;;;;;;16.68;96.94;94499.03;5051185;28;20257;-85
2023/06/03 00:51:53;;;;;;;4.03;3.53;;;;;;;16.72;97.41;94509.94;5053392;28;20175;-85
2023/06/03 00:54:19;;;;;;;6.40;3.15;;;;;;;16.90;97.72;94534.25;5052072;28;20179;-84
2023/06/03 00:56:45;;;;;;;5.65;3.30;;;;;;;16.88;98.11;94525.72;5053199;28;20173;-85
2023/06/03 00:59:14;;;;;;;3.95;3.55;;;;;;;16.84;97.97;94523.84;5053429;28;20712;-84
2023/06/03 01:01:42;;;;;;;4.25;3.25;;;;;;;16.75;97.55;94509.44;5053483;28;20167;-84
2023/06/03 01:04:09;;;;;;;5.97;3.55;;;;;;;16.57;97.60;94492.03;5053394;28;20262;-84
2023/06/03 01:06:45;;;;;;;11.82;6.63;;;;;;;16.73;97.90;94506.22;5053101;28;20197;-85
2023/06/03 01:09:38;;;;;;;8.13;5.72;;;;;;;16.83;97.67;94516.91;5053305;28;20155;-84
2023/06/03 01:12:15;;;;;;;19.10;10.73;;;;;;;16.58;96.41;94485.66;5053263;28;20163;-85
2023/06/03 01:14:50;;;;;;;13.80;8.38;;;;;;;16.56;96.80;94490.41;5052783;28;20618;-85
2023/06/03 01:17:19;;;;;;;17.65;8.40;;;;;;;16.68;97.14;94508.88;5052857;28;20155;-85
2023/06/03 01:19:49;;;;;;;12.43;8.23;;;;;;;16.63;97.77;94516.78;5051516;28;20174;-85
2023/06/03 01:22:20;;;;;;;23.10;11.40;;;;;;;16.49;98.21;94489.84;5053386;28;20250;-85
2023/06/03 01:24:50;;;;;;;16.58;9.77;;;;;;;16.26;97.08;94482.25;5051453;28;20167;-85
2023/06/03 01:27:15;;;;;;;23.83;15.85;;;;;;;16.16;97.39;94486.44;5052984;28;20171;-85
2023/06/03 01:29:42;;;;;;;16.33;11.18;;;;;;;16.25;97.43;94497.41;5052931;28;20147;-85
2023/06/03 01:32:15;;;;;;;28.05;16.58;;;;;;;15.99;98.04;94469.84;5050261;28;20791;-84
2023/06/03 01:34:41;;;;;;;22.25;12.00;;;;;;;16.28;97.39;94523.44;5052763;28;20182;-84
2023/06/03 01:37:08;;;;;;;26.50;12.07;;;;;;;16.32;97.10;94523.72;5051319;28;20191;-84
2023/06/03 01:39:37;;;;;;;21.65;9.85;;;;;;;16.33;96.65;94533.31;5052517;28;20175;-84
2023/06/03 01:42:03;;;;;;;13.02;7.10;;;;;;;16.30;96.61;94523.97;5052436;28;20535;-84
2023/06/03 01:44:28;;;;;;;14.70;8.70;;;;;;;16.00;96.77;94489.22;5051690;28;20505;-84
2023/06/03 01:46:53;;;;;;;10.67;6.40;;;;;;;16.02;97.05;94518.97;5051952;28;20419;-84
2023/06/03 01:49:19;;;;;;;12.48;7.13;;;;;;;16.07;97.38;94516.38;5052196;28;20706;-84
2023/06/03 01:51:45;;;;;;;9.15;5.75;;;;;;;15.99;96.76;94507.00;5052271;28;20641;-84
2023/06/03 01:54:11;;;;;;;8.82;5.18;;;;;;;16.06;96.75;94518.22;5052468;28;20186;-85
2023/06/03 01:56:36;;;;;;;8.15;5.03;;;;;;;15.92;97.63;94503.75;5050933;28;20171;-84
2023/06/03 01:59:02;;;;;;;7.55;4.97;;;;;;;15.98;97.40;94521.34;5052096;28;20187;-84
2023/06/03 02:01:27;;;;;;;4.97;3.40;;;;;;;16.00;97.95;94521.88;5051945;28;20614;-84
2023/06/03 02:03:52;;;;;;;7.45;4.18;;;;;;;15.81;97.16;94500.22;5052496;28;20171;-84
2023/06/03 02:06:18;;;;;;;6.63;4.17;;;;;;;15.76;97.46;94504.66;5051675;28;20435;-83
2023/06/03 02:08:43;;;;;;;5.93;4.53;;;;;;;15.87;98.18;94522.28;5052155;28;20147;-84
2023/06/03 02:11:09;;;;;;;8.55;5.20;;;;;;;15.77;97.95;94499.09;5052014;28;20688;-84
2023/06/03 02:13:34;;;;;;;8.75;6.35;;;;;;;15.79;97.94;94528.84;5051171;28;20403;-84
2023/06/03 02:16:00;;;;;;;15.30;9.43;;;;;;;15.58;98.62;94494.41;5052261;28;20285;-84
2023/06/03 02:18:26;;;;;;;6.93;5.35;;;;;;;15.70;98.65;94517.09;5051931;28;20191;-84
2023/06/03 02:20:52;;;;;;;14.48;10.43;;;;;;;15.56;98.56;94488.56;5052250;28;20159;-84
2023/06/03 02:23:17;;;;;;;15.95;10.45;;;;;;;15.84;98.92;94528.09;5051989;28;20159;-84
2023/06/03 02:25:42;;;;;;;7.18;4.93;;;;;;;15.72;99.04;94495.59;5050735;28;20623;-84
2023/06/03 02:28:08;;;;;;;12.60;8.07;;;;;;;15.92;98.82;94540.91;5052230;28;20162;-84
2023/06/03 02:30:33;;;;;;;8.18;5.22;;;;;;;15.93;99.04;94539.84;5051907;28;20245;-84
2023/06/03 02:32:59;;;;;;;10.43;4.88;;;;;;;15.91;99.06;94536.69;5051877;28;20589;-84
2023/06/03 02:35:24;;;;;;;7.43;5.03;;;;;;;15.80;98.83;94519.03;5052154;28;20182;-84
2023/06/03 02:37:50;;;;;;;6.30;5.00;;;;;;;15.78;98.90;94515.81;5051721;28;20195;-84
2023/06/03 02:40:16;;;;;;;4.95;3.70;;;;;;;15.97;98.34;94548.94;5050553;28;20167;-84
2023/06/03 02:42:42;;;;;;;7.68;5.22;;;;;;;15.60;98.64;94508.22;5044609;28;20413;-83
2023/06/03 02:45:08;;;;;;;14.40;9.15;;;;;;;15.72;99.22;94538.88;5043880;28;20171;-84
2023/06/03 02:47:33;;;;;;;23.60;15.60;;;;;;;15.82;99.92;94552.25;5039548;28;20171;-84
2023/06/03 02:49:59;;;;;;;22.58;14.70;;;;;;;15.70;100.00;94527.69;5041490;28;20218;-85
2023/06/03 02:52:25;;;;;;;23.63;14.73;;;;;;;15.83;100.00;94555.69;5043585;28;20410;-84
2023/06/03 02:54:50;;;;;;;8.27;5.25;;;;;;;15.91;99.97;94557.13;5040797;28;20172;-81
2023/06/03 02:57:16;;;;;;;8.10;4.35;;;;;;;15.94;99.45;94565.34;5039227;28;20183;-81
2023/06/03 02:59:42;;;;;;;15.82;10.55;;;;;;;15.98;99.47;94573.63;5042842;28;20213;-81
2023/06/03 03:02:08;;;;;;;8.13;5.57;;;;;;;16.03;99.51;94574.47;5051850;28;20163;-81
2023/06/03 03:04:36;;;;;;;6.55;4.70;;;;;;;16.08;99.37;94571.88;5051887;28;20209;-81
2023/06/03 03:07:05;;;;;;;9.50;6.15;;;;;;;15.79;98.82;94543.97;5044149;28;20175;-81
2023/06/03 03:09:31;;;;;;;9.88;5.90;;;;;;;15.94;99.35;94575.19;5043426;28;20167;-81
2023/06/03 03:11:56;;;;;;;7.43;4.70;;;;;;;15.85;100.00;94565.00;5040100;28;20242;-81
2023/06/03 03:14:22;;;;;;;8.88;6.03;;;;;;;15.91;100.00;94563.22;5043338;28;20174;-81
2023/06/03 03:16:47;;;;;;;6.60;5.28;;;;;;;16.08;100.00;94579.84;5048220;28;20620;-81
2023/06/03 03:19:14;;;;;;;8.40;5.38;;;;;;;16.18;100.00;94585.22;5042353;28;20274;-81
2023/06/03 03:21:39;;;;;;;7.05;4.35;;;;;;;16.23;100.00;94593.25;5035100;28;20654;-81
2023/06/03 03:24:05;;;;;;;9.38;4.60;;;;;;;16.10;99.73;94567.09;5035139;28;20214;-82
2023/06/03 03:26:32;;;;;;;7.40;4.93;;;;;;;16.15;100.00;94580.44;5041790;28;20183;-82
2023/06/03 03:28:58;;;;;;;6.63;4.68;;;;;;;16.17;99.89;94575.66;5046828;28;20646;-83
2023/06/03 03:31:23;;;;;;;10.93;4.90;;;;;;;16.34;100.00;94596.00;5045744;28;20183;-83
2023/06/03 03:33:50;;;;;;;5.25;3.90;;;;;;;16.27;100.00;94576.81;5042819;28;20713;-82
2023/06/03 03:36:36;;;;;;;8.13;4.30;;;;;;;16.42;100.00;94599.00;5044902;28;20187;-82
2023/06/03 03:39:04;;;;;;;11.00;5.03;;;;;;;16.44;99.97;94601.38;5051909;28;20210;-82
2023/06/03 03:41:30;;;;;;;7.30;4.20;;;;;;;16.41;99.94;94589.44;5055007;28;20590;-82
2023/06/03 03:43:56;;;;;;;5.82;4.38;;;;;;;16.41;100.00;94588.63;5054653;28;20167;-82
2023/06/03 03:46:21;;;;;;;8.73;4.63;;;;;;;16.53;99.86;94608.66;5054706;28;20258;-83
2023/06/03 03:48:47;;;;;;;5.93;4.47;;;;;;;16.49;99.25;94596.13;5054436;28;20246;-83
2023/06/03 03:51:13;;;;;;;6.20;4.05;;;;;;;16.39;98.41;94588.88;5047784;28;20185;-82
2023/06/03 03:53:43;;;;;;;5.28;4.72;;;;;;;16.53;97.83;94613.97;5043076;28;20182;-82
2023/06/03 03:56:09;;;;;;;6.82;3.85;;;;;;;16.46;97.95;94597.44;5047777;28;20175;-82
2023/06/03 03:58:42;;;;;;;9.57;4.63;;;;;;;16.48;98.58;94590.00;5040300;28;20220;-82
2023/06/03 04:01:12;;;;;;;9.27;5.15;;;;;;;16.57;98.60;94600.97;5037078;28;20321;-83
2023/06/03 04:03:42;;;;;;;7.30;4.70;;;;;;;16.43;98.67;94576.66;5044380;28;20167;-82
2023/06/03 04:06:09;;;;;;;6.53;5.03;;;;;;;16.79;98.97;94628.28;5047933;28;20166;-83
2023/06/03 04:08:40;;;;;;;5.90;4.57;;;;;;;16.83;99.37;94624.06;5041670;28;20698;-82
2023/06/03 04:11:08;;;;;;;8.98;4.47;;;;;;;16.86;99.13;94623.56;5040293;28;20159;-83
2023/06/03 04:13:40;;;;;;;11.48;5.10;;;;;;;16.88;99.06;94621.44;5047742;28;20171;-81
2023/06/03 04:16:27;;;;;;;8.40;5.45;;;;;;;16.92;98.84;94614.56;5054389;28;20205;-81
2023/06/03 04:18:53;;;;;;;12.23;5.22;;;;;;;16.94;99.60;94620.44;5049067;28;20199;-85
2023/06/03 04:21:19;;;;;;;8.35;5.10;;;;;;;16.98;99.35;94624.16;5043753;28;20166;-84
2023/06/03 04:23:45;;;;;;;9.60;5.22;;;;;;;16.96;99.33;94614.84;5042286;28;20171;-84
2023/06/03 04:26:13;;;;;;;7.25;4.68;;;;;;;17.07;99.19;94629.81;5043619;28;20538;-83
2023/06/03 04:28:38;;;;;;;8.73;4.80;;;;;;;17.06;98.65;94622.09;5032113;28;20172;-83
2023/06/03 04:31:04;;;;;;;7.97;5.03;;;;;;;17.11;98.64;94628.25;5043618;28;20175;-81
2023/06/03 04:33:29;;;;;;;8.43;5.55;;;;;;;17.14;97.83;94633.03;5041186;28;20189;-82
2023/06/03 04:35:55;;;;;;;6.45;5.07;;;;;;;17.02;97.65;94608.53;5047354;28;20229;-82
2023/06/03 04:38:20;;;;;;;6.72;5.28;;;;;;;17.06;97.93;94604.28;5046504;28;20187;-82
2023/06/03 04:40:46;;;;;;;11.77;6.45;;;;;;;17.12;97.73;94621.09;5039832;28;20164;-81
2023/06/03 04:43:14;;;;;;;8.30;5.22;;;;;;;16.92;97.62;94601.28;5036395;28;20179;-82
2023/06/03 04:45:40;;;;;;;7.53;4.78;;;;;;;16.95;97.42;94622.00;5037376;28;20278;-83
2023/06/03 04:48:05;;;;;;;7.45;5.13;;;;;;;17.01;97.70;94632.69;5047390;28;20674;-82
2023/06/03 04:50:34;;;;;;;8.32;5.50;;;;;;;16.99;97.75;94619.66;5035755;28;20222;-84
2023/06/03 04:53:00;;;;;;;7.85;5.20;;;;;;;17.08;97.09;94614.66;5037053;28;20202;-82
2023/06/03 04:55:25;;;;;;;9.70;4.65;;;;;;;17.17;96.65;94597.16;5033373;28;20168;-83
2023/06/03 04:57:52;;;;;;;8.60;5.38;;;;;;;17.55;96.37;94631.44;5033303;28;20183;-83
2023/06/03 05:00:19;;;;;;;8.50;4.68;;;;;;;17.25;96.09;94564.75;5033360;28;20153;-82
2023/06/03 05:02:48;;;;;;;5.85;4.68;;;;;;;17.85;95.25;94641.41;5034017;28;20229;-83
2023/06/03 05:05:13;;;;;;;6.25;4.75;;;;;;;17.91;96.01;94624.38;5035800;28;20171;-82
2023/06/03 05:07:39;;;;;;;6.40;5.28;;;;;;;18.21;95.29;94639.66;5036976;28;20685;-85
2023/06/03 05:10:05;;;;;;;12.23;5.30;;;;;;;17.85;89.51;94630.75;5036756;28;20172;-84
2023/06/03 05:12:31;;;;;;;8.52;4.93;;;;;;;18.10;90.30;94654.00;5034932;28;20741;-85
2023/06/03 05:14:56;;;;;;;6.25;4.68;;;;;;;18.22;90.38;94656.44;5033022;28;20251;-84
2023/06/03 05:17:21;;;;;;;7.13;4.90;;;;;;;18.17;89.78;94637.75;5032970;28;20148;-85
2023/06/03 05:19:47;;;;;;;9.05;4.75;;;;;;;18.34;90.61;94644.47;5032848;28;20187;-84
2023/06/03 05:22:12;;;;;;;7.15;4.82;;;;;;;18.45;91.07;94629.28;5032968;28;20546;-84
2023/06/03 05:24:38;;;;;;;6.13;5.00;;;;;;;18.56;88.63;94652.25;5031522;28;20238;-84
2023/06/03 05:27:03;;;;;;;6.15;4.18;;;;;;;18.48;86.87;94642.91;5031547;28;20167;-85
2023/06/03 05:29:29;;;;;;;8.60;4.13;;;;;;;18.08;86.32;94614.31;5031549;28;20160;-85
2023/06/03 05:31:54;;;;;;;8.45;4.22;;;;;;;18.40;86.45;94659.44;5031367;28;20662;-85
2023/06/03 05:34:20;;;;;;;7.60;5.18;;;;;;;18.55;87.81;94658.63;5032553;28;20210;-85
2023/06/03 05:36:45;;;;;;;8.20;4.60;;;;;;;18.45;87.79;94623.97;5033704;28;20659;-85
2023/06/03 05:39:12;;;;;;;11.75;6.88;;;;;;;18.88;89.29;94661.88;5035974;28;20202;-85
2023/06/03 05:41:37;;;;;;;9.68;5.72;;;;;;;18.84;89.20;94622.41;5037480;28;20168;-85
2023/06/03 05:44:02;;;;;;;8.48;4.93;;;;;;;18.78;84.11;94633.34;5042929;28;20171;-85
2023/06/03 05:46:28;;;;;;;13.82;5.93;;;;;;;18.92;85.22;94642.44;5050704;28;20221;-85
2023/06/03 05:48:53;;;;;;;9.25;4.40;;;;;;;19.20;85.15;94662.38;5050686;28;20262;-85
2023/06/03 05:51:18;;;;;;;6.97;4.70;;;;;;;19.22;84.65;94660.25;5051125;28;20179;-86
2023/06/03 05:53:44;;;;;;;5.93;4.45;;;;;;;19.16;82.23;94650.66;5052185;28;20635;-85
2023/06/03 05:56:10;;;;;;;9.10;4.13;;;;;;;19.43;84.53;94658.34;5052194;28;20167;-85
2023/06/03 05:58:36;;;;;;;11.18;4.65;;;;;;;19.47;81.74;94641.53;5052359;28;20184;-85
2023/06/03 06:01:01;;;;;;;9.55;5.15;;;;;;;19.87;80.50;94672.69;5052140;28;20178;-85
2023/06/03 06:03:27;;;;;;;5.97;4.43;;;;;;;19.95;80.30;94642.72;5052130;28;20276;-85
2023/06/03 06:05:52;;;;;;;7.13;4.68;;;;;;;20.33;82.93;94635.03;5052203;28;20161;-86
2023/06/03 06:08:17;;;;;;;10.10;6.20;;;;;;;20.33;79.27;94609.09;5052046;28;20174;-86
2023/06/03 06:10:43;;;;;;;4.22;3.20;;;;;;;20.58;76.33;94648.25;5052081;28;20250;-86
2023/06/03 06:13:08;;;;;;;7.50;4.00;;;;;;;20.75;77.77;94668.50;5052304;28;20164;-86
2023/06/03 06:15:34;;;;;;;7.20;3.67;;;;;;;20.63;76.20;94631.41;5052052;28;20171;-86
2023/06/03 06:17:59;;;;;;;6.15;5.05;;;;;;;20.89;74.42;94670.25;5050716;28;20277;-86
2023/06/03 06:20:25;;;;;;;8.25;5.47;;;;;;;20.68;73.69;94677.63;5044844;28;20251;-86
2023/06/03 06:22:50;;;;;;;9.52;6.88;;;;;;;20.47;75.55;94646.75;5036309;28;20672;-86
2023/06/03 06:25:16;;;;;;;10.93;4.50;;;;;;;20.44;74.73;94641.94;5035763;28;20174;-86
2023/06/03 06:27:43;;;;;;;9.02;3.72;;;;;;;20.71;76.70;94670.94;5035669;28;20168;-86
2023/06/03 06:30:08;;;;;;;6.88;4.78;;;;;;;20.46;74.47;94653.16;5051047;28;20182;-86
2023/06/03 06:32:54;;;;;;;5.07;4.03;;;;;;;20.54;76.36;94654.47;5052203;28;20167;-85
2023/06/03 06:35:20;;;;;;;5.07;3.67;;;;;;;20.67;76.78;94664.53;5052467;28;20191;-85
2023/06/03 06:37:46;;;;;;;4.00;3.60;;;;;;;20.61;75.66;94652.25;5051878;28;20186;-86
2023/06/03 06:40:18;;;;;;;7.18;4.45;;;;;;;20.61;76.88;94650.38;5051798;28;20159;-86
2023/06/03 06:42:44;;;;;;;6.07;3.53;;;;;;;20.66;75.30;94652.25;5050486;28;20182;-86
2023/06/03 06:45:32;;;;;;;7.88;3.60;;;;;;;20.81;75.99;94664.72;5051796;28;20631;-86
2023/06/03 06:48:06;;;;;;;5.10;3.42;;;;;;;20.85;73.41;94673.75;5054197;28;20175;-86
2023/06/03 06:50:54;;;;;;;6.82;4.20;;;;;;;20.92;76.23;94660.88;5055436;28;20246;-86
2023/06/03 06:53:21;;;;;;;4.68;3.95;;;;;;;21.15;77.03;94676.22;5055670;28;20162;-86
2023/06/03 06:55:55;;;;;;;5.53;4.00;;;;;;;21.27;76.85;94676.69;5054401;28;20187;-85
2023/06/03 06:58:22;;;;;;;7.95;4.60;;;;;;;21.37;75.29;94681.91;5055506;28;20213;-86
2023/06/03 07:00:48;;;;;;;6.63;3.83;;;;;;;21.40;77.15;94659.94;5055986;28;20160;-86
2023/06/03 07:03:16;;;;;;;7.20;4.40;;;;;;;21.71;77.69;94686.41;5055739;28;20213;-86
2023/06/03 07:05:42;;;;;;;9.93;4.22;;;;;;;21.67;75.04;94663.94;5055305;28;20175;-86
2023/06/03 07:08:08;;;;;;;12.18;4.60;;;;;;;21.93;76.24;94685.91;5054966;28;20209;-86
2023/06/03 07:10:35;;;;;;;6.68;3.67;;;;;;;21.75;73.05;94664.13;5054045;28;20178;-85
2023/06/03 07:13:02;;;;;;;5.90;3.92;;;;;;;21.80;74.71;94652.53;5055435;28;20172;-86
2023/06/03 07:15:28;;;;;;;7.38;3.53;;;;;;;22.08;76.09;94673.16;5053964;28;20183;-85
2023/06/03 07:17:55;;;;;;;10.00;4.70;;;;;;;22.27;77.13;94683.09;5055412;28;20202;-85
2023/06/03 07:20:33;;;;;;;9.65;4.20;;;;;;;22.26;76.36;94668.09;5055388;28;20203;-85
2023/06/03 07:22:59;;;;;;;4.47;3.90;;;;;;;22.45;75.23;94696.56;5055638;28;20178;-85
2023/06/03 07:25:43;;;;;;;7.30;3.88;;;;;;;22.59;77.13;94691.25;5055053;28;20164;-85
2023/06/03 07:28:33;;;;;;;5.32;3.92;;;;;;;22.62;74.73;94689.88;5053738;28;20171;-85
2023/06/03 07:31:03;;;;;;;6.00;3.75;;;;;;;22.63;74.58;94691.47;5053157;28;20191;-84
2023/06/03 07:33:30;;;;;;;4.07;2.83;;;;;;;22.44;74.38;94654.72;5055176;28;20168;-84
2023/06/03 07:36:01;;;;;;;5.68;3.45;;;;;;;22.70;71.56;94714.19;5055035;28;20162;-84
2023/06/03 07:38:38;;;;;;;7.65;5.28;;;;;;;22.63;71.17;94716.44;5054733;28;20678;-84
2023/06/03 07:41:05;;;;;;;6.68;3.83;;;;;;;22.63;73.99;94710.28;5045531;28;20203;-85
2023/06/03 07:43:30;;;;;;;4.00;3.60;;;;;;;22.65;74.00;94716.94;5046760;28;20167;-85
2023/06/03 07:45:56;;;;;;;3.92;3.17;;;;;;;22.34;73.26;94670.13;5047097;28;20252;-85
2023/06/03 07:48:24;;;;;;;7.80;4.60;;;;;;;22.41;72.94;94684.78;5047859;28;20274;-85
2023/06/03 07:50:49;;;;;;;5.60;4.18;;;;;;;22.37;72.22;94696.41;5054498;28;20213;-84
2023/06/03 07:53:23;;;;;;;5.28;2.90;;;;;;;22.17;70.46;94725.06;5054401;28;20179;-84
2023/06/03 07:55:50;;;;;;;7.03;3.58;;;;;;;21.91;73.13;94723.72;5054609;28;20246;-84
2023/06/03 07:58:16;;;;;;;6.60;4.07;;;;;;;22.03;76.86;94724.16;5054256;28;20221;-84
2023/06/03 08:00:45;;;;;;;6.35;3.35;;;;;;;22.26;75.61;94727.09;5053586;28;20171;-85
2023/06/03 08:03:15;;;;;;;5.60;3.22;;;;;;;22.28;75.25;94706.16;5054206;28;20163;-83
2023/06/03 08:05:41;;;;;;;5.38;2.85;;;;;;;22.67;75.74;94738.91;5045106;28;20178;-86
2023/06/03 08:08:10;;;;;;;3.80;2.78;;;;;;;22.90;74.41;94738.09;5047858;28;20171;-85
2023/06/03 08:10:36;;;;;;;4.40;2.42;;;;;;;23.09;73.18;94734.63;5045622;28;20175;-86
2023/06/03 08:13:02;;;;;;;5.03;2.40;;;;;;;23.24;72.27;94737.84;5044319;28;20174;-86
2023/06/03 08:15:32;;;;;;;3.33;2.30;;;;;;;23.11;70.52;94700.97;5041855;28;20622;-84
2023/06/03 08:17:59;;;;;;;4.68;2.50;;;;;;;23.30;69.68;94714.38;5045785;28;20981;-84
2023/06/03 08:20:28;;;;;;;6.43;2.67;;;;;;;23.57;72.20;94729.81;5044731;28;20182;-84
2023/06/03 08:22:55;;;;;;;4.30;2.50;;;;;;;23.75;71.56;94718.22;5037055;28;20280;-86
2023/06/03 08:25:21;;;;;;;3.70;2.72;;;;;;;24.12;72.00;94728.00;5037064;28;20179;-86
2023/06/03 08:27:46;;;;;;;2.90;2.60;;;;;;;24.23;67.74;94710.59;5042151;28;20257;-84
2023/06/03 08:30:12;;;;;;;3.00;2.40;;;;;;;24.55;67.82;94722.34;5046558;28;20186;-86
2023/06/03 08:32:38;;;;;;;3.50;2.40;;;;;;;24.48;65.24;94695.00;5041935;28;20599;-86
2023/06/03 08:35:06;;;;;;;7.97;2.50;;;;;;;24.80;65.78;94719.09;5041803;28;20571;-84
2023/06/03 08:37:32;;;;;;;5.60;2.53;;;;;;;24.99;63.93;94709.00;5045670;28;20635;-85
2023/06/03 08:39:58;;;;;;;5.10;2.47;;;;;;;25.19;64.44;94710.41;5038408;28;20192;-85
2023/06/03 08:42:30;;;;;;;6.00;2.65;;;;;;;25.55;63.75;94718.41;5050766;28;20638;-87
2023/06/03 08:45:06;;;;;;;3.63;2.50;;;;;;;25.65;63.68;94714.69;5050117;28;20207;-87
2023/06/03 08:47:53;;;;;;;3.75;2.20;;;;;;;25.72;62.64;94723.94;5052192;28;20179;-86
2023/06/03 08:50:22;;;;;;;3.40;2.13;;;;;;;25.61;57.92;94711.81;5051850;28;20701;-86
2023/06/03 08:52:51;;;;;;;2.55;2.35;;;;;;;25.34;63.41;94717.34;5053131;28;20193;-86
2023/06/03 08:55:17;;;;;;;3.97;2.33;;;;;;;25.27;64.42;94719.63;5053607;28;20659;-84
2023/06/03 08:57:59;;;;;;;2.67;2.40;;;;;;;25.21;64.03;94715.47;5053110;28;20163;-86
2023/06/03 09:00:26;;;;;;;2.78;2.30;;;;;;;25.23;62.71;94716.78;5051983;28;20224;-85
2023/06/03 09:02:52;;;;;;;3.38;2.63;;;;;;;25.22;63.93;94699.00;5053143;28;20164;-85
2023/06/03 09:05:19;;;;;;;4.90;2.78;;;;;;;25.14;59.89;94692.47;5053389;28;20198;-86
2023/06/03 09:07:47;;;;;;;2.10;1.95;;;;;;;25.10;61.38;94663.72;5052988;28;20258;-86
2023/06/03 09:10:15;;;;;;;4.90;3.40;;;;;;;25.30;60.83;94684.00;5051104;28;20183;-86
2023/06/03 09:12:41;;;;;;;4.25;2.42;;;;;;;25.42;60.96;94681.56;5038176;28;20617;-86
2023/06/03 09:15:08;;;;;;;2.30;2.08;;;;;;;25.80;64.26;94712.41;5040047;28;20183;-86
2023/06/03 09:17:35;;;;;;;3.25;2.17;;;;;;;25.81;61.84;94688.91;5041306;28;20185;-86
2023/06/03 09:20:02;;;;;;;3.15;2.33;;;;;;;25.96;60.93;94687.69;5050370;28;20191;-85
2023/06/03 09:22:28;;;;;;;3.40;1.90;;;;;;;25.89;58.06;94664.69;5051501;28;20665;-86
2023/06/03 09:24:54;;;;;;;8.48;3.00;;;;;;;25.73;59.25;94651.91;5052717;28;20159;-85
2023/06/03 09:27:19;;;;;;;2.80;2.17;;;;;;;26.06;56.17;94700.91;5052498;28;20160;-85
2023/06/03 09:29:44;;;;;;;3.15;2.00;;;;;;;25.86;56.41;94670.69;5051370;28;20175;-86
2023/06/03 09:32:10;;;;;;;3.97;2.33;;;;;;;25.82;53.71;94663.53;5048585;28;20682;-90
2023/06/03 09:34:36;;;;;;;2.83;2.40;;;;;;;25.94;55.60;94685.34;5041817;28;20228;-84
2023/06/03 09:37:09;;;;;;;3.60;2.10;;;;;;;26.02;53.54;94684.56;5041919;28;20202;-82
2023/06/03 09:39:36;;;;;;;3.38;2.47;;;;;;;25.91;55.40;94686.75;5042900;28;20195;-81
2023/06/03 09:42:02;;;;;;;3.28;2.50;;;;;;;25.97;56.83;94690.09;5042748;28;20163;-80
2023/06/03 09:44:55;;;;;;;4.05;2.38;;;;;;;25.79;56.37;94672.25;5043934;28;20250;-85
2023/06/03 09:47:21;;;;;;;2.42;1.63;;;;;;;25.90;59.41;94666.25;5038679;28;20171;-84
2023/06/03 09:50:09;;;;;;;6.03;2.50;;;;;;;25.87;58.60;94650.69;5041069;28;20292;-83
2023/06/03 09:52:36;;;;;;;2.70;2.30;;;;;;;26.09;56.49;94676.03;5041185;28;20170;-84
2023/06/03 09:55:01;;;;;;;6.28;2.75;;;;;;;26.21;57.65;94681.59;5036034;28;20175;-84
2023/06/03 09:57:27;;;;;;;2.50;2.30;;;;;;;26.13;56.96;94666.97;5038422;28;20554;-82
2023/06/03 10:00:04;;;;;;;2.92;2.58;;;;;;;26.35;56.35;94687.72;5036041;28;20199;-83
2023/06/03 10:02:29;;;;;;;4.65;2.40;;;;;;;26.17;53.06;94664.44;5040132;28;20163;-84
2023/06/03 10:04:54;;;;;;;4.35;2.47;;;;;;;26.29;56.54;94686.28;5032523;28;20198;-84
2023/06/03 10:07:20;;;;;;;2.50;2.30;;;;;;;26.10;52.92;94678.41;5032154;28;20627;-84
2023/06/03 10:09:47;;;;;;;3.72;2.47;;;;;;;26.13;53.63;94680.47;5029893;28;20176;-84
2023/06/03 10:12:14;;;;;;;2.85;1.98;;;;;;;26.07;53.21;94664.72;5034499;28;20242;-84
2023/06/03 10:14:46;;;;;;;3.03;2.10;;;;;;;26.20;54.49;94663.84;5042243;28;20253;-84
2023/06/03 10:17:13;;;;;;;3.08;1.95;;;;;;;26.40;55.52;94684.84;5035815;28;20187;-84
2023/06/03 10:19:43;;;;;;;6.82;3.65;;;;;;;26.00;55.10;94650.91;5032012;28;20206;-84
2023/06/03 10:22:11;;;;;;;4.22;2.20;;;;;;;25.76;51.67;94622.44;5042528;28;20183;-84
2023/06/03 10:24:38;;;;;;;4.10;3.20;;;;;;;25.82;51.07;94672.41;5043522;28;20558;-83
2023/06/03 10:27:04;;;;;;;4.18;1.73;;;;;;;25.50;51.29;94667.31;5052300;28;20247;-82
2023/06/03 10:29:31;;;;;;;5.15;2.33;;;;;;;24.77;57.00;94639.69;5037092;28;20597;-82
2023/06/03 10:32:00;;;;;;;4.57;2.40;;;;;;;24.82;57.59;94663.81;5035450;28;20241;-82
2023/06/03 10:34:28;;;;;;;4.75;2.38;;;;;;;24.96;59.52;94665.69;5050207;28;20659;-82
2023/06/03 10:36:57;;;;;;;2.63;2.30;;;;;;;25.20;61.39;94666.19;5048191;28;20171;-82
2023/06/03 10:39:26;;;;;;;3.00;2.30;;;;;;;25.27;58.97;94661.16;5052297;28;20249;-82
2023/06/03 10:41:57;;;;;;;6.88;3.25;;;;;;;25.16;54.45;94638.25;5046854;28;20187;-82
2023/06/03 10:44:23;;;;;;;4.38;2.45;;;;;;;25.23;53.35;94657.50;5037867;28;20621;-82
2023/06/03 10:46:55;;;;;;;3.20;2.33;;;;;;;25.03;53.91;94664.16;5043783;28;20233;-83
2023/06/03 10:49:23;;;;;;;4.35;2.33;;;;;;;24.82;53.89;94655.72;5046304;28;20302;-82
2023/06/03 10:52:07;;;;;;;2.15;1.95;;;;;;;24.89;55.83;94660.72;5035585;28;20187;-82
2023/06/03 10:54:57;;;;;;;5.57;2.10;;;;;;;25.01;57.36;94658.28;5037730;28;20160;-82
2023/06/03 10:57:32;;;;;;;2.30;2.10;;;;;;;24.94;56.68;94644.44;5039173;28;20202;-82
2023/06/03 10:59:58;;;;;;;2.05;1.65;;;;;;;24.85;54.53;94631.97;5045182;28;20677;-82
2023/06/03 11:02:25;;;;;;;2.67;2.10;;;;;;;24.92;55.66;94643.94;5049613;28;20182;-82
2023/06/03 11:05:20;;;;;;;3.17;2.00;;;;;;;24.97;53.63;94653.81;5053943;28;20159;-82
2023/06/03 11:07:45;;;;;;;3.42;1.90;;;;;;;24.66;53.68;94621.38;5057474;28;20151;-83
2023/06/03 11:10:46;;;;;;;2.30;2.05;;;;;;;24.74;58.94;94647.56;5057837;28;20190;-82
2023/06/03 11:13:40;;;;;;;5.15;2.30;;;;;;;24.81;53.83;94653.34;5026414;28;20563;-82
2023/06/03 11:16:06;;;;;;;5.10;3.50;;;;;;;24.67;56.69;94653.38;5049914;28;20245;-82
2023/06/03 11:18:31;;;;;;;5.28;3.22;;;;;;;24.80;58.00;94641.78;5043651;28;20187;-82
2023/06/03 11:20:57;;;;;;;6.97;2.53;;;;;;;24.87;57.41;94638.66;5044275;28;20222;-82
2023/06/03 11:23:43;;;;;;;5.28;1.90;;;;;;;25.23;58.18;94654.78;5042885;28;20258;-82
2023/06/03 11:26:33;;;;;;;2.38;2.08;;;;;;;25.45;55.78;94656.66;5043464;28;20175;-82
2023/06/03 11:29:38;;;;;;;2.53;2.30;;;;;;;25.48;51.73;94640.66;5047816;28;20679;-82
2023/06/03 11:32:20;;;;;;;3.28;2.15;;;;;;;25.41;53.37;94653.00;5043276;28;20190;-82
2023/06/03 11:34:48;;;;;;;2.95;2.20;;;;;;;25.50;57.00;94629.56;5034954;28;20156;-80
2023/06/03 11:37:17;;;;;;;2.42;2.10;;;;;;;25.59;55.03;94624.22;5034914;28;20234;-80